Latest Weather Observations for Kuitpo

IDS60901

Issued at 10:25 pm CDT Friday 24 October 2014 (issued every 10 minutes, with the page automatically refreshed every 10 minutes)

About weather observations | Map of Adelaide area stations | Latest observations for Adelaide area | Other Formats
Station Details ID: 023887 Name: KUITPO FOREST RESERVE Lat: -35.17 Lon: 138.68 Height: 365.0 m
Data from the previous 72 hours. | See also: Recent months at Kuitpo
Date/Time
CDT
Tmp

°C
App
Tmp
°C
Dew
Point
°C
Rel
Hum
%
Delta-T

°C
Wind Press
QNH
hPa
Press
MSL
hPa
Rain
since
9 am
mm
Dir
 
Spd
km/h
Gust
km/h
Spd
kts
Gust
kts
24/10:00pm 13.8 11.2 13.8 100 0.0 SE 20 33 11 18 1015.1 1014.7 0.0
24/09:30pm 14.0 11.5 14.0 100 0.0 SE 20 30 11 16 1014.9 1014.5 0.0
24/09:00pm 14.3 12.3 13.8 97 0.3 SE 17 26 9 14 1014.7 1014.3 0.0
24/08:30pm 15.1 12.6 13.5 90 0.9 SE 19 24 10 13 1014.3 1013.9 0.0
24/08:00pm 15.9 13.4 13.6 86 1.3 ESE 19 26 10 14 1014.0 1013.6 0.0
24/07:30pm 17.5 15.2 13.0 75 2.6 SE 17 24 9 13 1013.7 1013.3 0.0
24/07:26pm 17.9 15.5 12.8 72 2.9 SE 17 24 9 13 1013.7 1013.3 0.0
24/07:00pm 22.9 21.3 10.3 45 7.0 E 9 19 5 10 1013.5 1013.1 0.0
24/06:30pm 25.1 24.3 8.1 34 9.2 WSW 2 7 1 4 1013.4 1013.0 0.0
24/06:00pm 25.4 22.4 7.5 32 9.6 SW 13 19 7 10 1013.2 1012.9 0.0
24/05:30pm 26.3 23.1 6.9 29 10.4 SW 13 24 7 13 1013.0 1012.7 0.0
24/05:00pm 26.8 22.4 4.6 24 11.4 SW 17 24 9 13 1012.8 1012.5 0.0
24/04:30pm 28.1 24.5 5.0 23 12.1 SW 13 22 7 12 1012.6 1012.2 0.0
24/04:00pm 28.5 25.1 4.1 21 12.6 W 11 20 6 11 1012.8 1012.5 0.0
24/03:30pm 28.1 24.8 4.4 22 12.3 W 11 17 6 9 1012.9 1012.6 0.0
24/03:00pm 27.4 23.8 5.1 24 11.6 W 13 22 7 12 1013.4 1013.0 0.0
24/02:30pm 26.9 22.8 4.6 24 11.5 W 15 20 8 11 1013.5 1013.1 0.0
24/02:00pm 27.4 24.3 7.3 28 10.9 WSW 13 20 7 11 1013.8 1013.4 0.0
24/01:30pm 26.5 22.5 6.5 28 10.6 W 17 26 9 14 1014.2 1013.8 0.0
24/01:00pm 25.9 21.4 6.0 28 10.5 W 19 28 10 15 1014.2 1013.8 0.0
24/12:30pm 25.6 21.1 6.3 29 10.2 W 19 28 10 15 1014.3 1013.9 0.0
24/12:00pm 25.4 21.1 8.0 33 9.4 W 20 32 11 17 1014.5 1014.1 0.0
24/11:30am 24.3 19.9 9.1 38 8.4 WNW 22 32 12 17 1014.7 1014.3 0.0
24/11:00am 23.5 19.8 9.5 41 7.7 WNW 19 30 10 16 1014.8 1014.4 0.0
24/10:30am 22.3 18.4 8.8 42 7.3 WNW 19 28 10 15 1014.9 1014.5 0.0
24/10:00am 20.8 18.7 11.2 54 5.4 WNW 13 19 7 10 1014.8 1014.4 0.0
24/09:30am 19.8 17.2 10.8 56 5.0 NW 15 20 8 11 1014.5 1014.1 0.0
24/09:00am 19.3 16.6 10.3 56 4.9 NW 15 22 8 12 1014.5 1014.1 0.0
24/08:30am 18.4 15.4 9.2 55 4.9 NW 15 20 8 11 1014.3 1013.9 0.0
24/08:00am 17.6 15.0 9.2 58 4.5 NW 13 20 7 11 1013.8 1013.4 0.0
24/07:30am 16.2 13.4 8.7 61 3.9 WNW 13 17 7 9 1013.7 1013.3 0.0
24/07:00am 16.3 12.6 8.0 58 4.3 WNW 17 22 9 12 1013.1 1012.8 0.0
24/06:30am 16.2 12.4 7.7 57 4.3 WNW 17 22 9 12 1012.6 1012.2 0.0
24/06:00am 16.5 12.6 7.2 54 4.7 WNW 17 24 9 13 1012.1 1011.7 0.0
24/05:30am 16.9 13.7 6.7 51 5.1 NNW 13 15 7 8 1011.5 1011.1 0.0
24/05:00am 16.4 13.1 7.9 57 4.4 NNW 15 19 8 10 1011.6 1011.2 0.0
24/04:30am 15.6 12.8 8.6 63 3.6 NNW 13 19 7 10 1011.6 1011.2 0.0
24/04:00am 16.1 12.2 8.8 62 3.8 NW 19 24 10 13 1011.9 1011.5 0.0
24/03:30am 15.9 13.2 9.1 64 3.6 NNW 13 17 7 9 1011.6 1011.2 0.0
24/03:00am 14.4 12.5 10.6 78 2.0 N 11 15 6 8 1012.4 1012.0 0.0
24/02:30am 14.5 12.4 11.3 81 1.7 NNW 13 17 7 9 1012.7 1012.3 0.0
24/02:00am 13.5 12.5 12.2 92 0.7 N 9 13 5 7 1013.0 1012.7 0.0
24/01:30am 13.7 12.7 12.3 91 0.8 N 9 13 5 7 1013.6 1013.2 0.0
24/01:00am 13.8 12.9 12.7 93 0.6 N 9 11 5 6 1014.0 1013.6 0.0
24/12:30am 13.8 12.5 12.5 92 0.7 NNW 11 15 6 8 1014.4 1014.0 0.0
24/12:00am 14.3 12.7 12.9 91 0.8 WNW 13 20 7 11 1014.6 1014.2 0.0
 
Date/Time
CDT
Tmp

°C
App
Tmp
°C
Dew
Point
°C
Rel
Hum
%
Delta-T

°C
Wind Press
QNH
hPa
Press
MSL
hPa
Rain
since
9 am
mm
Dir
 
Spd
km/h
Gust
km/h
Spd
kts
Gust
kts
23/11:30pm 14.8 13.4 12.3 85 1.4 WNW 11 15 6 8 1014.6 1014.2 0.0
23/11:00pm 15.3 14.0 12.6 84 1.5 NNW 11 13 6 7 1014.6 1014.2 0.0
23/10:30pm 15.2 14.2 12.3 83 1.6 NNW 9 11 5 6 1014.7 1014.3 0.0
23/10:00pm 15.6 14.7 12.7 83 1.6 NW 9 11 5 6 1014.8 1014.4 0.0
23/09:30pm 15.9 15.4 12.6 81 1.9 WNW 7 11 4 6 1014.9 1014.5 0.0
23/09:00pm 15.5 15.2 13.2 86 1.3 N 7 9 4 5 1014.8 1014.4 0.0
23/08:30pm 15.6 15.4 13.1 85 1.4 N 6 7 3 4 1014.6 1014.2 0.0
23/08:00pm 16.3 15.9 13.0 81 1.9 WNW 7 9 4 5 1014.4 1014.0 0.0
23/07:30pm 17.1 16.3 13.0 77 2.3 W 9 13 5 7 1014.5 1014.1 0.0
23/07:00pm 18.1 17.4 13.2 73 2.8 W 9 11 5 6 1014.2 1013.8 0.0
23/06:30pm 19.0 18.7 13.4 70 3.2 W 7 9 4 5 1014.0 1013.6 0.0
23/06:00pm 19.6 18.9 13.3 67 3.6 W 9 13 5 7 1013.9 1013.5 0.0
23/05:30pm 21.0 20.1 13.7 63 4.3 W 11 17 6 9 1013.9 1013.5 0.0
23/05:00pm 22.3 21.2 14.2 60 4.8 WSW 13 19 7 10 1013.9 1013.5 0.0
23/04:30pm 23.0 22.3 14.3 58 5.2 W 11 28 6 15 1013.6 1013.2 0.0
23/04:00pm 23.1 22.3 14.1 57 5.4 WSW 11 15 6 8 1013.7 1013.3 0.0
23/03:30pm 22.6 21.4 13.9 58 5.2 WSW 13 22 7 12 1013.8 1013.4 0.0
23/03:00pm 22.3 19.6 12.8 55 5.5 WNW 19 24 10 13 1013.9 1013.5 0.0
23/02:30pm 23.3 22.2 12.0 49 6.5 SSW 9 19 5 10 1014.4 1014.0 0.0
23/02:00pm 23.1 21.8 12.4 51 6.2 ESE 11 17 6 9 1014.6 1014.2 0.0
23/01:30pm 21.6 20.7 12.5 56 5.2 E 9 15 5 8 1015.1 1014.7 0.0
23/01:00pm 20.2 19.2 12.4 61 4.5 SSE 9 15 5 8 1015.4 1015.1 0.0
23/12:30pm 18.4 16.6 12.2 67 3.5 ESE 13 17 7 9 1015.7 1015.4 0.0
23/12:00pm 16.5 15.1 12.3 76 2.3 E 11 19 6 10 1016.3 1015.9 0.0
23/11:30am 14.9 12.3 12.0 83 1.6 E 17 26 9 14 1016.5 1016.1 0.0
23/11:00am 13.6 11.2 12.7 94 0.5 E 17 24 9 13 1016.9 1016.5 0.0
23/10:30am 12.2 9.3 12.2 100 0.0 ESE 19 26 10 14 1017.0 1016.6 0.0
23/10:00am 11.9 9.6 11.9 100 0.0 ESE 15 20 8 11 1017.2 1016.8 0.0
23/09:30am 11.9 9.3 11.9 100 0.0 ESE 17 28 9 15 1017.1 1016.7 0.0
23/09:00am 11.6 8.9 11.6 100 0.0 ESE 17 26 9 14 1017.2 1016.8 0.0
23/08:30am 11.3 7.5 11.3 100 0.0 ESE 22 33 12 18 1017.0 1016.6 0.0
23/08:00am 11.1 7.9 11.1 100 0.0 SE 19 30 10 16 1017.4 1017.0 0.0
23/07:30am 11.2 7.8 11.2 100 0.0 SE 20 33 11 18 1017.1 1016.7 0.0
23/07:00am 11.1 6.9 11.1 100 0.0 SE 24 37 13 20 1017.0 1016.6 0.0
23/06:30am 11.3 7.9 11.3 100 0.0 SE 20 32 11 17 1017.0 1016.6 0.0
23/06:00am 11.1 6.5 11.1 100 0.0 SE 26 44 14 24 1016.6 1016.2 0.0
23/05:30am 11.3 7.5 11.3 100 0.0 SE 22 37 12 20 1016.8 1016.4 0.0
23/05:00am 11.3 7.5 11.3 100 0.0 SE 22 43 12 23 1016.5 1016.1 0.0
23/04:30am 11.4 8.0 11.4 100 0.0 SE 20 35 11 19 1016.8 1016.4 0.0
23/04:00am 11.4 7.7 11.4 100 0.0 SE 22 35 12 19 1017.0 1016.6 0.0
23/03:30am 11.4 8.0 11.4 100 0.0 SSE 20 33 11 18 1017.1 1016.7 0.0
23/03:00am 11.4 8.0 11.4 100 0.0 SE 20 35 11 19 1017.4 1017.0 0.0
23/02:30am 11.6 9.3 11.6 100 0.0 SE 15 26 8 14 1017.5 1017.2 0.0
23/02:00am 11.5 8.4 11.5 100 0.0 SE 19 30 10 16 1017.8 1017.5 0.0
23/01:30am 11.5 9.1 11.5 100 0.0 SE 15 24 8 13 1017.9 1017.6 0.0
23/01:00am 11.5 7.4 11.5 100 0.0 SE 24 35 13 19 1017.9 1017.6 0.0
23/12:30am 11.5 7.8 11.5 100 0.0 SE 22 33 12 18 1018.1 1017.8 0.0
23/12:00am 11.6 7.9 11.6 100 0.0 SE 22 30 12 16 1018.4 1018.1 0.0
 
Date/Time
CDT
Tmp

°C
App
Tmp
°C
Dew
Point
°C
Rel
Hum
%
Delta-T

°C
Wind Press
QNH
hPa
Press
MSL
hPa
Rain
since
9 am
mm
Dir
 
Spd
km/h
Gust
km/h
Spd
kts
Gust
kts
22/11:30pm 11.7 8.1 11.7 100 0.0 SE 22 35 12 19 1018.7 1018.4 0.0
22/11:00pm 11.7 7.7 11.7 100 0.0 SSE 24 39 13 21 1018.9 1018.6 0.0
22/10:30pm 11.8 7.4 11.8 100 0.0 SE 26 43 14 23 1018.9 1018.6 0.0
22/10:05pm 12.0 7.3 12.0 100 0.0 SE 28 46 15 25 1019.2 1018.8 0.0
22/10:00pm 12.0 7.7 12.0 100 0.0 SE 26 39 14 21 1019.2 1018.8 0.0
22/09:30pm 12.1 8.6 12.1 100 0.0 SE 22 37 12 20 1018.8 1018.5 0.0
22/09:00pm 12.3 8.5 12.3 100 0.0 SE 24 35 13 19 1018.6 1018.3 0.0
22/08:30pm 12.3 7.6 12.1 99 0.1 SE 28 44 15 24 1018.2 1017.9 0.0
22/08:00pm 12.5 7.8 11.9 96 0.3 SE 28 46 15 25 1017.7 1017.4 0.0
22/07:56pm 12.5 7.8 11.9 96 0.3 SE 28 46 15 25 1017.6 1017.3 0.0
22/07:30pm 12.8 8.3 11.5 92 0.7 SE 26 37 14 20 1017.2 1016.8 0.0
22/07:00pm 13.7 10.0 11.6 87 1.1 SE 22 33 12 18 1017.1 1016.7 0.0
22/06:30pm 14.7 10.9 11.3 80 1.8 SSE 22 35 12 19 1016.9 1016.5 0.0
22/06:00pm 16.6 13.2 11.3 71 2.9 SSE 20 37 11 20 1016.9 1016.5 0.0
22/05:30pm 17.9 13.8 11.5 66 3.5 SE 24 39 13 21 1016.7 1016.3 0.0
22/05:00pm 19.1 15.7 11.4 61 4.3 SSE 20 30 11 16 1016.8 1016.4 0.0
22/04:30pm 19.9 16.6 11.7 59 4.6 SE 20 35 11 19 1016.8 1016.4 0.0
22/04:00pm 21.2 17.4 11.0 52 5.7 SSE 22 39 12 21 1016.8 1016.4 0.0
22/03:30pm 22.4 18.7 10.2 46 6.8 SSE 20 30 11 16 1016.8 1016.4 0.0
22/03:00pm 23.0 19.1 9.4 42 7.5 S 20 32 11 17 1016.9 1016.5 0.0
22/02:30pm 23.1 19.6 10.9 46 6.9 S 20 39 11 21 1017.4 1017.0 0.0
22/02:00pm 22.2 18.8 11.3 50 6.2 SSE 20 39 11 21 1017.3 1016.9 0.0
22/01:30pm 23.0 19.4 10.4 45 7.0 S 20 32 11 17 1017.2 1016.8 0.0
22/01:00pm 24.3 21.6 11.6 45 7.3 SE 17 32 9 17 1017.0 1016.6 0.0
22/12:30pm 24.4 20.9 10.3 41 7.9 SSE 19 26 10 14 1017.1 1016.7 0.0
22/12:00pm 25.0 22.4 10.8 41 8.1 SE 15 24 8 13 1017.2 1016.8 0.0
22/11:30am 24.6 22.2 10.1 40 8.1 SSE 13 22 7 12 1017.2 1016.8 0.0
22/11:00am 24.0 21.6 11.3 45 7.2 SSE 15 20 8 11 1017.0 1016.6 0.0
22/10:30am 23.4 20.0 10.5 44 7.2 ESE 19 26 10 14 1017.3 1016.9 0.0
22/10:00am 23.1 20.1 10.5 45 7.1 ESE 17 26 9 14 1017.3 1016.9 0.0
22/09:30am 24.0 21.5 9.6 40 8.0 ESE 13 22 7 12 1017.1 1016.7 0.0
22/09:00am 23.0 20.1 8.3 39 7.9 SE 13 19 7 10 1016.9 1016.5 0.0
22/08:30am 22.1 19.7 7.1 38 7.9 SE 9 15 5 8 1016.9 1016.5 0.0
22/08:00am 22.9 19.7 4.9 31 9.1 ESE 11 17 6 9 1016.6 1016.2 0.0
22/07:30am 24.4 21.8 3.1 25 10.5 N 6 7 3 4 1016.3 1015.9 0.0
22/07:00am 23.2 20.3 2.7 26 10.0 NNE 7 9 4 5 1016.2 1015.8 0.0
22/06:30am 22.4 18.9 3.5 29 9.3 NNE 11 15 6 8 1015.9 1015.6 0.0
22/06:00am 21.7 17.1 3.9 31 8.8 E 17 22 9 12 1015.4 1015.1 0.0
22/05:30am 21.6 17.1 4.2 32 8.6 E 17 22 9 12 1015.5 1015.2 0.0
22/05:00am 21.1 16.0 4.2 33 8.3 E 20 26 11 14 1015.3 1015.0 0.0
22/04:30am 22.1 17.2 4.2 31 8.9 E 19 20 10 11 1015.3 1015.0 0.0
22/04:00am 21.4 16.4 4.5 33 8.4 ESE 20 26 11 14 1015.2 1014.9 0.0
22/03:30am 20.6 16.2 4.6 35 7.9 SE 17 24 9 13 1015.7 1015.4 0.0
22/03:00am 21.8 17.0 4.4 32 8.6 ESE 19 26 10 14 1016.2 1015.8 0.0
22/02:30am 22.4 18.1 3.5 29 9.3 SE 15 20 8 11 1016.4 1016.0 0.0
22/02:00am 25.6 23.1 1.7 21 11.6 WNW 4 7 2 4 1016.5 1016.1 0.0
22/01:30am 25.9 21.4 1.9 21 11.7 WNW 15 22 8 12 1016.8 1016.4 0.0
22/01:00am 26.1 21.1 1.4 20 12.0 NE 17 26 9 14 1016.6 1016.2 0.0
22/12:30am 26.1 21.1 1.4 20 12.0 NE 17 24 9 13 1017.0 1016.6 0.0
22/12:00am 26.4 21.5 1.7 20 12.0 NE 17 24 9 13 1017.4 1017.0 0.0
 
Date/Time
CDT
Tmp

°C
App
Tmp
°C
Dew
Point
°C
Rel
Hum
%
Delta-T

°C
Wind Press
QNH
hPa
Press
MSL
hPa
Rain
since
9 am
mm
Dir
 
Spd
km/h
Gust
km/h
Spd
kts
Gust
kts
21/11:30pm 26.8 22.3 2.0 20 12.2 NNE 15 24 8 13 1017.7 1017.4 0.0
21/11:00pm 25.8 22.0 3.7 24 11.1 NNE 13 20 7 11 1017.9 1017.6 0.0
21/10:30pm 25.3 20.8 4.4 26 10.6 ENE 17 24 9 13 1018.1 1017.8 0.0

Latest Capital City Observations: Canberra | Sydney | Melbourne | Brisbane | Adelaide | Perth | Hobart | Darwin

Other Formats:

Comma delimited format used in spreadsheet applications
http://www.bom.gov.au/fwo/IDS60901/IDS60901.94683.axf

JavaScript Object Notation format (JSON) in row-major order
http://www.bom.gov.au/fwo/IDS60901/IDS60901.94683.json